Time;durP1;ratioP1;P1;durP2;ratioP2;P2;SDS_P1;SDS_P2;PMS_P1;PMS_P2;Temp;Humidity;BMP_temperature;BMP_pressure;BME280_temperature;BME280_humidity;BME280_pressure;Samples;Min_cycle;Max_cycle;Signal;HPM_P1;HPM_P2
2022/03/07 00:01:01;;;;;;;13.90;10.25;;;2.70;67.30;;;;;;5089718;28;20093;-84
2022/03/07 00:03:28;;;;;;;16.05;11.07;;;2.60;67.30;;;;;;5089870;28;20513;-85
2022/03/07 00:05:57;;;;;;;13.95;10.68;;;2.60;67.40;;;;;;5074088;28;20410;-84
2022/03/07 00:08:24;;;;;;;13.65;10.57;;;2.60;67.50;;;;;;5087742;28;20060;-87
2022/03/07 00:11:03;;;;;;;12.93;10.13;;;2.60;67.50;;;;;;5091069;28;20048;-86
2022/03/07 00:13:30;;;;;;;14.27;10.65;;;2.50;67.60;;;;;;5089922;28;20040;-86
2022/03/07 00:16:00;;;;;;;12.20;10.13;;;2.50;67.60;;;;;;5089556;28;20044;-86
2022/03/07 00:18:27;;;;;;;15.05;11.27;;;2.50;67.70;;;;;;5089956;28;20040;-86
2022/03/07 00:20:55;;;;;;;15.20;11.13;;;2.50;67.70;;;;;;5089946;28;20044;-85
2022/03/07 00:23:22;;;;;;;15.65;11.60;;;2.50;67.80;;;;;;5091898;28;20047;-85
2022/03/07 00:25:49;;;;;;;13.50;10.73;;;2.40;67.90;;;;;;5089484;28;20056;-85
2022/03/07 00:28:17;;;;;;;14.05;10.88;;;2.40;67.90;;;;;;5089844;28;20487;-85
2022/03/07 00:30:44;;;;;;;16.33;11.18;;;2.40;68.00;;;;;;5088037;28;20052;-85
2022/03/07 00:33:13;;;;;;;16.00;11.70;;;2.40;68.00;;;;;;5089799;28;20063;-85
2022/03/07 00:35:40;;;;;;;13.52;10.68;;;2.40;68.10;;;;;;5090051;28;20502;-84
2022/03/07 00:38:08;;;;;;;13.63;10.68;;;2.30;68.20;;;;;;5089626;28;20498;-85
2022/03/07 00:40:34;;;;;;;15.63;11.43;;;2.30;68.20;;;;;;5089581;28;20052;-85
2022/03/07 00:43:07;;;;;;;15.27;10.95;;;2.30;68.30;;;;;;5089651;28;20040;-84
2022/03/07 00:45:35;;;;;;;15.10;11.82;;;2.30;68.30;;;;;;5089365;28;20055;-85
2022/03/07 00:48:03;;;;;;;16.33;10.88;;;2.30;68.40;;;;;;5089702;28;20044;-84
2022/03/07 00:50:30;;;;;;;16.90;11.30;;;2.30;68.50;;;;;;5091130;28;20059;-85
2022/03/07 00:52:57;;;;;;;14.93;11.30;;;2.20;68.50;;;;;;5089037;28;20044;-84
2022/03/07 00:55:24;;;;;;;16.08;12.02;;;2.20;68.60;;;;;;5089517;28;20095;-84
2022/03/07 00:57:50;;;;;;;14.38;11.50;;;2.20;68.70;;;;;;5089450;28;20480;-86
2022/03/07 01:00:20;;;;;;;14.60;11.27;;;2.20;68.70;;;;;;5089639;28;20040;-85
2022/03/07 01:02:47;;;;;;;14.63;11.35;;;2.20;68.80;;;;;;5093248;28;20048;-84
2022/03/07 01:05:15;;;;;;;16.20;11.70;;;2.20;68.80;;;;;;5095139;28;20086;-85
2022/03/07 01:07:42;;;;;;;16.23;11.20;;;2.10;68.90;;;;;;5093041;28;20218;-85
2022/03/07 01:10:09;;;;;;;13.88;11.05;;;2.10;68.90;;;;;;5091738;28;20052;-85
2022/03/07 01:12:36;;;;;;;14.55;11.10;;;2.10;69.00;;;;;;5092990;28;20043;-84
2022/03/07 01:15:04;;;;;;;14.93;11.27;;;2.00;69.10;;;;;;5092616;28;20506;-85
2022/03/07 01:17:31;;;;;;;16.58;11.00;;;2.00;69.20;;;;;;5094396;28;20513;-84
2022/03/07 01:19:58;;;;;;;15.05;11.45;;;2.00;69.20;;;;;;5093616;28;20052;-85
2022/03/07 01:22:25;;;;;;;16.65;11.18;;;2.00;69.30;;;;;;5092796;28;20094;-85
2022/03/07 01:24:52;;;;;;;14.20;10.52;;;2.00;69.40;;;;;;5092732;28;20090;-85
2022/03/07 01:27:19;;;;;;;15.43;11.38;;;2.00;69.40;;;;;;5092692;28;20097;-85
2022/03/07 01:29:46;;;;;;;13.57;10.32;;;1.90;69.50;;;;;;5092379;28;20101;-85
2022/03/07 01:32:13;;;;;;;15.95;10.68;;;1.90;69.50;;;;;;5094796;28;20116;-85
2022/03/07 01:34:40;;;;;;;15.13;11.05;;;1.90;69.60;;;;;;5092602;28;20044;-87
2022/03/07 01:37:07;;;;;;;13.82;10.20;;;1.90;69.60;;;;;;5092513;28;20105;-85
2022/03/07 01:39:34;;;;;;;15.43;10.50;;;1.90;69.70;;;;;;5092523;28;20305;-85
2022/03/07 01:42:01;;;;;;;16.38;10.38;;;1.90;69.70;;;;;;5092845;28;20591;-85
2022/03/07 01:44:28;;;;;;;14.98;11.00;;;1.90;69.80;;;;;;5093762;28;20052;-85
2022/03/07 01:46:57;;;;;;;13.05;10.05;;;1.90;69.80;;;;;;5091413;28;20072;-84
2022/03/07 01:49:27;;;;;;;14.27;10.77;;;1.90;69.90;;;;;;5090826;28;20052;-84
2022/03/07 01:51:55;;;;;;;15.00;10.95;;;1.90;69.90;;;;;;5092290;28;20575;-85
2022/03/07 01:54:23;;;;;;;16.05;11.13;;;1.90;69.90;;;;;;5092285;28;20536;-84
2022/03/07 01:56:52;;;;;;;14.23;11.10;;;1.90;69.90;;;;;;5092259;28;20055;-85
2022/03/07 01:59:27;;;;;;;13.05;10.60;;;1.90;70.00;;;;;;5093866;28;20051;-85
2022/03/07 02:01:55;;;;;;;14.27;11.05;;;1.80;70.00;;;;;;5092542;28;20492;-84
2022/03/07 02:04:22;;;;;;;13.68;10.50;;;1.80;70.00;;;;;;5091795;28;20055;-84
2022/03/07 02:06:49;;;;;;;14.52;10.82;;;1.80;70.10;;;;;;5091956;28;20044;-86
2022/03/07 02:09:17;;;;;;;14.95;11.15;;;1.80;70.10;;;;;;5092092;28;20040;-84
2022/03/07 02:11:43;;;;;;;15.70;10.65;;;1.70;70.10;;;;;;5091053;28;20055;-85
2022/03/07 02:14:16;;;;;;;14.18;10.48;;;1.80;70.20;;;;;;5093604;28;20063;-85
2022/03/07 02:16:44;;;;;;;14.15;10.70;;;1.70;70.20;;;;;;5091797;28;20521;-85
2022/03/07 02:19:12;;;;;;;17.83;10.98;;;1.70;70.20;;;;;;5091739;28;20476;-86
2022/03/07 02:21:46;;;;;;;13.43;10.27;;;1.70;70.20;;;;;;5091816;28;20052;-84
2022/03/07 02:24:14;;;;;;;15.88;11.45;;;1.70;70.30;;;;;;5090624;28;20055;-85
2022/03/07 02:26:42;;;;;;;13.48;10.20;;;1.70;70.30;;;;;;5092124;28;20059;-85
2022/03/07 02:29:10;;;;;;;15.88;10.95;;;1.70;70.30;;;;;;5091624;28;20052;-85
2022/03/07 02:31:40;;;;;;;13.52;10.68;;;1.70;70.40;;;;;;5090369;28;20048;-85
2022/03/07 02:34:07;;;;;;;14.63;11.02;;;1.70;70.40;;;;;;5091430;28;20518;-85
2022/03/07 02:36:34;;;;;;;14.02;11.07;;;1.70;70.40;;;;;;5091246;28;20515;-85
2022/03/07 02:39:02;;;;;;;15.50;11.30;;;1.60;70.40;;;;;;5091324;28;20093;-85
2022/03/07 02:41:29;;;;;;;15.60;11.63;;;1.60;70.40;;;;;;5092634;28;20048;-85
2022/03/07 02:43:56;;;;;;;16.10;11.23;;;1.60;70.50;;;;;;5089289;28;20044;-84
2022/03/07 02:46:23;;;;;;;14.07;10.68;;;1.60;70.50;;;;;;5091141;28;20048;-84
2022/03/07 02:48:50;;;;;;;13.02;10.57;;;1.60;70.50;;;;;;5091245;28;20044;-85
2022/03/07 02:51:17;;;;;;;13.40;10.40;;;1.60;70.50;;;;;;5091253;28;20509;-84
2022/03/07 02:53:44;;;;;;;13.85;10.43;;;1.60;70.50;;;;;;5091184;28;20079;-85
2022/03/07 02:56:11;;;;;;;13.80;10.88;;;1.50;70.60;;;;;;5092752;28;20052;-86
2022/03/07 02:58:38;;;;;;;16.40;11.63;;;1.50;70.60;;;;;;5090870;28;20040;-85
2022/03/07 03:01:06;;;;;;;14.73;11.55;;;1.50;70.60;;;;;;5090916;28;20484;-85
2022/03/07 03:03:33;;;;;;;16.02;11.98;;;1.50;70.60;;;;;;5090904;28;20113;-85
2022/03/07 03:06:00;;;;;;;17.50;11.15;;;1.50;70.70;;;;;;5089507;28;20102;-84
2022/03/07 03:08:28;;;;;;;16.88;11.50;;;1.50;70.70;;;;;;5093078;28;20061;-84
2022/03/07 03:10:58;;;;;;;14.23;11.50;;;1.40;70.70;;;;;;5091056;28;20054;-85
2022/03/07 03:13:25;;;;;;;14.63;11.27;;;1.50;70.70;;;;;;5090736;28;20051;-85
2022/03/07 03:15:53;;;;;;;15.85;10.98;;;1.40;70.70;;;;;;5089530;28;20421;-84
2022/03/07 03:18:21;;;;;;;16.05;11.60;;;1.40;70.80;;;;;;5090902;28;20097;-84
2022/03/07 03:20:50;;;;;;;16.83;11.48;;;1.40;70.70;;;;;;5090821;28;20060;-84
2022/03/07 03:23:18;;;;;;;15.52;11.55;;;1.40;70.80;;;;;;5092628;28;20558;-84
2022/03/07 03:25:46;;;;;;;15.93;11.55;;;1.40;70.80;;;;;;5089817;28;20117;-84
2022/03/07 03:28:13;;;;;;;16.60;11.75;;;1.40;70.80;;;;;;5090562;28;20044;-84
2022/03/07 03:30:40;;;;;;;12.70;10.52;;;1.40;70.80;;;;;;5090559;28;20510;-84
2022/03/07 03:33:07;;;;;;;14.15;11.18;;;1.40;70.90;;;;;;5090571;28;20044;-84
2022/03/07 03:35:36;;;;;;;14.70;10.95;;;1.40;70.90;;;;;;5091686;28;20109;-84
2022/03/07 03:38:08;;;;;;;14.60;11.70;;;1.40;70.90;;;;;;5091690;28;20040;-84
2022/03/07 03:40:36;;;;;;;13.40;11.45;;;1.30;70.90;;;;;;5089980;28;20056;-84
2022/03/07 03:43:04;;;;;;;15.82;11.65;;;1.40;70.90;;;;;;5089199;28;20497;-84
2022/03/07 03:45:31;;;;;;;14.80;11.45;;;1.30;70.90;;;;;;5088772;28;20105;-84
2022/03/07 03:48:00;;;;;;;15.77;12.00;;;1.30;70.90;;;;;;5090195;28;20561;-84
2022/03/07 03:50:27;;;;;;;19.35;11.73;;;1.30;70.90;;;;;;5092307;28;20139;-84
2022/03/07 03:52:54;;;;;;;14.43;10.82;;;1.30;70.90;;;;;;5090981;28;20044;-84
2022/03/07 03:55:21;;;;;;;15.93;12.60;;;1.20;70.90;;;;;;5089792;28;20632;-84
2022/03/07 03:57:48;;;;;;;15.98;11.50;;;1.20;70.90;;;;;;5090083;28;20064;-84
2022/03/07 04:00:17;;;;;;;17.05;12.20;;;1.20;71.00;;;;;;5090113;28;20538;-84
2022/03/07 04:02:46;;;;;;;16.90;11.70;;;1.20;71.00;;;;;;5089983;28;20048;-83
2022/03/07 04:05:14;;;;;;;15.60;12.25;;;1.20;71.00;;;;;;5092081;28;20058;-84
2022/03/07 04:07:42;;;;;;;16.95;12.00;;;1.20;71.00;;;;;;5089867;28;20060;-84
2022/03/07 04:10:10;;;;;;;16.58;12.32;;;1.20;71.10;;;;;;5090251;28;20051;-84
2022/03/07 04:12:37;;;;;;;15.95;12.20;;;1.10;71.10;;;;;;5089934;28;20109;-84
2022/03/07 04:15:04;;;;;;;17.95;12.57;;;1.20;71.10;;;;;;5090006;28;20044;-84
2022/03/07 04:17:31;;;;;;;19.13;12.45;;;1.10;71.10;;;;;;5090328;28;20081;-84
2022/03/07 04:19:58;;;;;;;16.35;12.65;;;1.10;71.20;;;;;;5090507;28;20448;-84
2022/03/07 04:22:25;;;;;;;18.63;12.25;;;1.10;71.20;;;;;;5089457;28;20051;-84
2022/03/07 04:24:52;;;;;;;16.02;12.57;;;1.10;71.20;;;;;;5088330;28;20036;-84
2022/03/07 04:27:19;;;;;;;16.55;12.98;;;1.00;71.20;;;;;;5089630;28;20480;-84
2022/03/07 04:29:46;;;;;;;16.17;12.50;;;1.00;71.30;;;;;;5089719;28;20098;-84
2022/03/07 04:32:13;;;;;;;17.90;12.25;;;1.00;71.20;;;;;;5091915;28;20052;-84
2022/03/07 04:34:40;;;;;;;17.63;12.55;;;1.00;71.30;;;;;;5089780;28;20525;-84
2022/03/07 04:37:07;;;;;;;16.00;12.32;;;1.00;71.30;;;;;;5092728;28;20138;-83
2022/03/07 04:39:34;;;;;;;16.15;12.80;;;1.00;71.30;;;;;;5093856;28;20052;-83
2022/03/07 04:42:01;;;;;;;16.42;12.32;;;0.90;71.30;;;;;;5093615;28;20041;-84
2022/03/07 04:44:28;;;;;;;16.20;12.35;;;1.00;71.30;;;;;;5095308;28;20052;-84
2022/03/07 04:46:55;;;;;;;15.93;12.43;;;1.00;71.30;;;;;;5094294;28;20549;-84
2022/03/07 04:49:22;;;;;;;17.05;13.02;;;0.90;71.30;;;;;;5093362;28;20101;-84
2022/03/07 04:51:49;;;;;;;16.95;13.07;;;1.00;71.30;;;;;;5093191;28;20097;-84
2022/03/07 04:54:18;;;;;;;15.57;12.43;;;0.90;71.30;;;;;;5093576;28;20040;-84
2022/03/07 04:56:47;;;;;;;17.13;12.88;;;0.90;71.30;;;;;;5093313;28;20101;-84
2022/03/07 04:59:15;;;;;;;16.80;13.20;;;0.90;71.30;;;;;;5095492;28;20493;-84
2022/03/07 05:01:42;;;;;;;18.10;13.82;;;0.90;71.30;;;;;;5092096;28;20048;-84
2022/03/07 05:04:09;;;;;;;16.38;13.25;;;0.90;71.30;;;;;;5091814;28;20043;-84
2022/03/07 05:06:36;;;;;;;18.20;13.32;;;0.90;71.30;;;;;;5092635;28;20548;-84
2022/03/07 05:09:04;;;;;;;16.08;12.60;;;0.90;71.30;;;;;;5093308;28;20040;-84
2022/03/07 05:11:31;;;;;;;16.65;13.02;;;0.90;71.30;;;;;;5093278;28;20052;-83
2022/03/07 05:13:58;;;;;;;15.98;13.32;;;0.90;71.20;;;;;;5093767;28;20048;-83
2022/03/07 05:16:25;;;;;;;17.52;12.80;;;0.90;71.20;;;;;;5093006;28;20059;-84
2022/03/07 05:18:52;;;;;;;18.13;13.00;;;0.90;71.20;;;;;;5093064;28;20097;-83
2022/03/07 05:21:19;;;;;;;18.02;12.98;;;0.90;71.20;;;;;;5092669;28;20056;-84
2022/03/07 05:23:46;;;;;;;15.43;12.90;;;0.90;71.10;;;;;;5092925;28;20106;-84
2022/03/07 05:26:13;;;;;;;19.85;13.40;;;0.90;71.10;;;;;;5093508;28;20055;-84
2022/03/07 05:28:40;;;;;;;20.50;13.10;;;0.90;71.10;;;;;;5092682;28;20048;-83
2022/03/07 05:31:12;;;;;;;17.45;13.15;;;0.90;71.10;;;;;;5092769;28;20101;-83
2022/03/07 05:33:39;;;;;;;19.33;13.57;;;0.90;71.00;;;;;;5092757;28;20048;-84
2022/03/07 05:36:07;;;;;;;17.63;13.20;;;0.90;71.00;;;;;;5092263;28;20562;-84
2022/03/07 05:38:34;;;;;;;16.05;13.15;;;0.90;71.00;;;;;;5093919;28;20497;-84
2022/03/07 05:41:01;;;;;;;19.02;13.25;;;0.90;70.90;;;;;;5092421;28;20051;-84
2022/03/07 05:43:28;;;;;;;16.02;13.35;;;0.90;70.90;;;;;;5091014;28;20101;-84
2022/03/07 05:45:55;;;;;;;16.48;13.55;;;0.90;70.90;;;;;;5092276;28;20051;-84
2022/03/07 05:48:22;;;;;;;15.57;13.13;;;0.90;70.80;;;;;;5092152;28;20047;-84
2022/03/07 05:50:49;;;;;;;18.25;14.18;;;0.90;70.80;;;;;;5092009;28;20060;-84
2022/03/07 05:53:21;;;;;;;17.20;13.38;;;0.80;70.80;;;;;;5093901;28;20052;-83
2022/03/07 05:55:49;;;;;;;19.40;13.38;;;0.90;70.70;;;;;;5092282;28;20051;-83
2022/03/07 05:58:17;;;;;;;18.25;13.15;;;0.80;70.70;;;;;;5091977;28;20043;-84
2022/03/07 06:00:44;;;;;;;19.60;13.35;;;0.80;70.60;;;;;;5092017;28;20051;-85
2022/03/07 06:03:12;;;;;;;18.15;13.73;;;0.80;70.60;;;;;;5091924;28;20040;-84
2022/03/07 06:05:39;;;;;;;18.80;13.57;;;0.80;70.60;;;;;;5092119;28;20048;-84
2022/03/07 06:08:06;;;;;;;18.40;14.35;;;0.80;70.50;;;;;;5093656;28;20047;-83
2022/03/07 06:10:33;;;;;;;19.10;14.45;;;0.80;70.50;;;;;;5091678;28;20510;-83
2022/03/07 06:13:00;;;;;;;19.63;14.70;;;0.80;70.40;;;;;;5091689;28;20509;-83
2022/03/07 06:15:27;;;;;;;19.40;14.48;;;0.80;70.40;;;;;;5091698;28;20051;-83
2022/03/07 06:17:56;;;;;;;19.65;14.38;;;0.70;70.30;;;;;;5091719;28;20105;-84
2022/03/07 06:20:24;;;;;;;21.13;14.18;;;0.70;70.30;;;;;;5092624;28;20457;-84
2022/03/07 06:22:52;;;;;;;19.55;15.02;;;0.70;70.30;;;;;;5090130;28;20101;-84
2022/03/07 06:25:20;;;;;;;19.48;14.82;;;0.70;70.20;;;;;;5091001;28;20064;-84
2022/03/07 06:27:47;;;;;;;19.52;14.98;;;0.70;70.20;;;;;;5091552;28;20395;-84
2022/03/07 06:30:14;;;;;;;18.45;14.63;;;0.70;70.20;;;;;;5091582;28;20050;-82
2022/03/07 06:32:41;;;;;;;18.98;14.18;;;0.60;70.20;;;;;;5091491;28;20044;-82
2022/03/07 06:35:13;;;;;;;18.23;14.13;;;0.70;70.10;;;;;;5091484;28;20494;-84
2022/03/07 06:37:49;;;;;;;17.90;14.32;;;0.60;70.10;;;;;;5091117;28;20489;-84
2022/03/07 06:40:20;;;;;;;22.60;14.90;;;0.60;70.10;;;;;;5091334;28;20047;-84
2022/03/07 06:42:48;;;;;;;19.08;14.70;;;0.60;70.10;;;;;;5091102;28;20052;-84
2022/03/07 06:45:17;;;;;;;17.92;14.05;;;0.60;70.10;;;;;;5091334;28;20575;-84
2022/03/07 06:47:45;;;;;;;20.13;14.82;;;0.60;70.10;;;;;;5091131;28;20102;-85
2022/03/07 06:50:13;;;;;;;19.92;14.48;;;0.60;70.10;;;;;;5093489;28;20409;-85
2022/03/07 06:52:40;;;;;;;21.88;15.13;;;0.60;70.10;;;;;;5091324;28;20056;-85
2022/03/07 06:55:08;;;;;;;20.25;15.23;;;0.60;70.10;;;;;;5091151;28;20093;-84
2022/03/07 06:57:34;;;;;;;25.38;14.68;;;0.50;70.00;;;;;;5091191;28;20426;-84
2022/03/07 07:00:08;;;;;;;21.15;14.88;;;0.50;70.00;;;;;;5089372;28;20051;-84
2022/03/07 07:02:35;;;;;;;17.00;13.90;;;0.50;70.00;;;;;;5092279;28;20200;-84
2022/03/07 07:05:04;;;;;;;19.30;14.73;;;0.50;70.00;;;;;;5092251;28;20044;-85
2022/03/07 07:07:31;;;;;;;20.58;14.77;;;0.50;70.00;;;;;;5091017;28;20043;-84
2022/03/07 07:09:59;;;;;;;19.60;14.32;;;0.50;70.00;;;;;;5091043;28;20395;-84
2022/03/07 07:12:26;;;;;;;22.08;14.75;;;0.50;69.90;;;;;;5091059;28;20048;-84
2022/03/07 07:14:53;;;;;;;18.73;14.30;;;0.50;69.90;;;;;;5090990;28;20036;-84
2022/03/07 07:17:19;;;;;;;20.67;14.65;;;0.50;69.90;;;;;;5092749;28;20052;-84
2022/03/07 07:19:46;;;;;;;16.70;13.80;;;0.50;69.90;;;;;;5090730;28;20406;-84
2022/03/07 07:22:14;;;;;;;17.73;14.30;;;0.60;69.80;;;;;;5090918;28;20113;-84
2022/03/07 07:24:42;;;;;;;24.08;14.63;;;0.50;69.80;;;;;;5090624;28;20051;-84
2022/03/07 07:27:09;;;;;;;17.08;13.73;;;0.50;69.80;;;;;;5090739;28;20101;-84
2022/03/07 07:29:37;;;;;;;21.23;14.50;;;0.50;69.80;;;;;;5091842;28;20044;-84
2022/03/07 07:32:04;;;;;;;18.75;13.82;;;0.60;69.70;;;;;;5091717;28;20395;-86
2022/03/07 07:34:31;;;;;;;21.35;13.48;;;0.60;69.70;;;;;;5090485;28;20087;-85
2022/03/07 07:36:58;;;;;;;18.80;14.57;;;0.60;69.70;;;;;;5090414;28;20048;-85
2022/03/07 07:39:30;;;;;;;19.60;13.60;;;0.60;69.60;;;;;;5089185;28;20051;-85
2022/03/07 07:41:57;;;;;;;17.30;13.82;;;0.60;69.60;;;;;;5074679;28;20106;-85
2022/03/07 07:44:24;;;;;;;18.73;14.13;;;0.60;69.60;;;;;;5088219;28;20490;-85
2022/03/07 07:46:52;;;;;;;22.65;13.73;;;0.70;69.50;;;;;;5090218;28;20052;-85
2022/03/07 07:49:19;;;;;;;20.50;14.10;;;0.60;69.50;;;;;;5090271;28;20075;-85
2022/03/07 07:51:46;;;;;;;16.33;13.32;;;0.70;69.50;;;;;;5090400;28;20052;-85
2022/03/07 07:54:13;;;;;;;17.60;13.70;;;0.70;69.50;;;;;;5090615;28;20039;-85
2022/03/07 07:56:40;;;;;;;18.98;13.77;;;0.70;69.40;;;;;;5090879;28;20055;-85
2022/03/07 07:59:07;;;;;;;17.40;13.52;;;0.70;69.40;;;;;;5092111;28;20429;-84
2022/03/07 08:01:34;;;;;;;17.83;13.85;;;0.70;69.30;;;;;;5089806;28;20051;-85
2022/03/07 08:04:01;;;;;;;16.83;13.60;;;0.70;69.30;;;;;;5089013;28;20555;-85
2022/03/07 08:06:28;;;;;;;17.75;12.77;;;0.80;69.30;;;;;;5090036;28;20421;-85
2022/03/07 08:08:56;;;;;;;18.80;13.00;;;0.80;69.20;;;;;;5074246;28;20040;-84
2022/03/07 08:11:23;;;;;;;17.45;13.07;;;0.80;69.20;;;;;;5094600;28;20044;-85
2022/03/07 08:13:50;;;;;;;17.00;13.55;;;0.90;69.10;;;;;;5094238;28;20498;-85
2022/03/07 08:16:18;;;;;;;16.20;13.07;;;0.90;69.10;;;;;;5093916;28;20101;-85
2022/03/07 08:18:45;;;;;;;18.73;12.75;;;0.90;69.00;;;;;;5092927;28;20087;-85
2022/03/07 08:21:12;;;;;;;16.73;12.95;;;0.90;68.90;;;;;;5093096;28;20506;-85
2022/03/07 08:23:39;;;;;;;15.75;12.40;;;0.90;68.80;;;;;;5093794;28;20055;-85
2022/03/07 08:26:06;;;;;;;15.50;11.73;;;1.00;68.80;;;;;;5095574;28;20113;-84
2022/03/07 08:28:33;;;;;;;20.30;13.63;;;1.00;68.60;;;;;;5093754;28;20040;-84
2022/03/07 08:31:00;;;;;;;18.80;12.70;;;1.00;68.50;;;;;;5094026;28;20040;-83
2022/03/07 08:33:31;;;;;;;15.82;12.05;;;1.10;68.30;;;;;;5094049;28;20501;-84
2022/03/07 08:35:59;;;;;;;16.42;12.32;;;1.10;68.10;;;;;;5078247;28;20048;-84
2022/03/07 08:38:27;;;;;;;18.60;12.45;;;1.20;68.00;;;;;;5091778;28;20506;-84
2022/03/07 08:40:54;;;;;;;17.50;12.00;;;1.20;67.80;;;;;;5091360;28;20052;-84
2022/03/07 08:43:21;;;;;;;17.45;12.25;;;1.20;67.70;;;;;;5093473;28;20044;-84
2022/03/07 08:45:48;;;;;;;17.40;11.80;;;1.30;67.50;;;;;;5093668;28;20056;-84
2022/03/07 08:48:23;;;;;;;16.88;11.40;;;1.30;67.20;;;;;;5093720;28;20040;-84
2022/03/07 08:50:50;;;;;;;14.43;11.30;;;1.40;67.00;;;;;;5093747;28;20528;-84
2022/03/07 08:53:17;;;;;;;14.20;11.10;;;1.40;66.80;;;;;;5095795;28;20052;-84
2022/03/07 08:55:44;;;;;;;13.65;10.70;;;1.40;66.60;;;;;;5093497;28;20051;-84
2022/03/07 08:58:23;;;;;;;14.55;10.52;;;1.50;66.40;;;;;;5091793;28;20071;-84
2022/03/07 09:00:50;;;;;;;18.17;11.27;;;1.50;66.20;;;;;;5093512;28;20105;-84
2022/03/07 09:03:17;;;;;;;14.27;10.20;;;1.60;66.10;;;;;;5093426;28;20054;-84
2022/03/07 09:05:44;;;;;;;15.23;11.50;;;1.60;65.90;;;;;;5093397;28;20044;-86
2022/03/07 09:08:11;;;;;;;15.57;10.98;;;1.70;65.70;;;;;;5095489;28;20101;-85
2022/03/07 09:10:38;;;;;;;15.10;10.77;;;1.70;65.50;;;;;;5093309;28;20509;-84
2022/03/07 09:13:05;;;;;;;13.73;10.85;;;1.70;65.40;;;;;;5092789;28;20460;-84
2022/03/07 09:15:32;;;;;;;13.30;10.30;;;1.80;65.20;;;;;;5093229;28;20052;-85
2022/03/07 09:18:00;;;;;;;14.70;11.02;;;1.90;65.10;;;;;;5093364;28;20094;-85
2022/03/07 09:20:27;;;;;;;15.82;11.27;;;1.90;65.00;;;;;;5091276;28;20052;-85
2022/03/07 09:22:54;;;;;;;14.98;10.95;;;2.00;64.80;;;;;;5093209;28;20040;-85
2022/03/07 09:25:22;;;;;;;15.02;11.38;;;2.00;64.70;;;;;;5092672;28;20056;-86
2022/03/07 09:27:50;;;;;;;15.75;11.60;;;2.00;64.60;;;;;;5092540;28;20048;-85
2022/03/07 09:30:17;;;;;;;14.93;12.27;;;2.10;64.50;;;;;;5093000;28;20047;-85
2022/03/07 09:32:43;;;;;;;16.65;11.40;;;2.20;64.40;;;;;;5092923;28;20300;-85
2022/03/07 09:35:11;;;;;;;15.82;10.63;;;2.20;64.40;;;;;;5095019;28;20040;-85
2022/03/07 09:37:37;;;;;;;12.63;10.50;;;2.30;64.20;;;;;;5091266;28;20044;-85
2022/03/07 09:40:05;;;;;;;14.00;11.10;;;2.30;64.10;;;;;;5092850;28;20498;-85
2022/03/07 09:42:32;;;;;;;14.35;9.82;;;2.40;64.00;;;;;;5092356;28;20048;-85
2022/03/07 09:44:59;;;;;;;12.90;10.55;;;2.50;63.80;;;;;;5092788;28;20101;-85
2022/03/07 09:47:28;;;;;;;13.85;10.05;;;2.50;63.70;;;;;;5094808;28;20091;-85
2022/03/07 09:49:55;;;;;;;13.57;10.13;;;2.60;63.50;;;;;;5090121;28;20054;-85
2022/03/07 09:52:22;;;;;;;14.43;10.88;;;2.70;63.30;;;;;;5092539;28;20047;-86
2022/03/07 09:54:49;;;;;;;14.40;11.07;;;2.70;63.20;;;;;;5092331;28;20051;-85
2022/03/07 09:57:16;;;;;;;13.88;10.73;;;2.90;63.00;;;;;;5092045;28;20520;-85
2022/03/07 09:59:42;;;;;;;12.50;10.18;;;2.90;62.80;;;;;;5092713;28;20093;-86
2022/03/07 10:02:12;;;;;;;14.82;11.20;;;3.00;62.60;;;;;;5092320;28;20048;-85
2022/03/07 10:04:42;;;;;;;12.75;9.15;;;3.10;62.40;;;;;;5092186;28;20046;-85
2022/03/07 10:07:09;;;;;;;12.30;9.70;;;3.30;62.20;;;;;;5092024;28;20098;-86
2022/03/07 10:09:37;;;;;;;11.77;9.32;;;3.40;62.00;;;;;;5092187;28;20517;-85
2022/03/07 10:12:04;;;;;;;14.00;9.88;;;3.50;61.80;;;;;;5091912;28;20051;-86
2022/03/07 10:14:42;;;;;;;13.27;10.32;;;3.50;61.50;;;;;;5093707;28;20047;-85
2022/03/07 10:17:27;;;;;;;14.57;10.00;;;3.70;61.30;;;;;;5092025;28;20059;-86
2022/03/07 10:19:55;;;;;;;13.38;10.13;;;3.80;61.00;;;;;;5089337;28;20505;-85
2022/03/07 10:22:27;;;;;;;13.73;9.90;;;3.90;60.90;;;;;;5091884;28;20101;-86
2022/03/07 10:25:00;;;;;;;13.48;9.90;;;3.90;60.60;;;;;;5091494;28;20510;-86
2022/03/07 10:27:30;;;;;;;12.57;10.57;;;4.00;60.40;;;;;;5091888;28;20537;-86
2022/03/07 10:29:57;;;;;;;17.20;10.23;;;4.20;60.20;;;;;;5075850;28;20453;-86
2022/03/07 10:32:24;;;;;;;12.50;9.77;;;4.20;60.00;;;;;;5093791;28;20044;-85
2022/03/07 10:34:51;;;;;;;11.60;9.30;;;4.30;59.70;;;;;;5090835;28;20052;-85
2022/03/07 10:37:18;;;;;;;14.90;10.02;;;4.30;59.40;;;;;;5091514;28;20052;-85
2022/03/07 10:39:52;;;;;;;16.48;11.05;;;4.40;59.20;;;;;;5091186;28;20052;-86
2022/03/07 10:42:20;;;;;;;12.73;10.35;;;4.40;58.90;;;;;;5091723;28;20117;-85
2022/03/07 10:44:48;;;;;;;11.38;9.27;;;4.50;58.70;;;;;;5090285;28;20059;-85
2022/03/07 10:47:18;;;;;;;15.90;10.00;;;4.60;58.50;;;;;;5093545;28;20055;-86
2022/03/07 10:49:55;;;;;;;11.38;9.93;;;4.60;58.30;;;;;;5090214;28;20044;-86
2022/03/07 10:52:24;;;;;;;14.18;9.88;;;4.70;58.10;;;;;;5091324;28;20533;-86
2022/03/07 10:54:51;;;;;;;15.13;10.63;;;4.70;57.90;;;;;;5089495;28;20116;-87
2022/03/07 10:57:20;;;;;;;13.15;10.93;;;4.80;57.70;;;;;;5091367;28;20055;-87
2022/03/07 10:59:47;;;;;;;13.52;10.55;;;4.80;57.60;;;;;;5091293;28;20101;-86
2022/03/07 11:02:16;;;;;;;12.45;10.35;;;4.90;57.50;;;;;;5093341;28;20056;-86
2022/03/07 11:04:46;;;;;;;14.18;10.55;;;4.90;57.30;;;;;;5091098;28;20052;-86
2022/03/07 11:07:13;;;;;;;12.50;10.27;;;5.00;57.10;;;;;;5090810;28;20528;-85
2022/03/07 11:09:41;;;;;;;15.45;11.82;;;5.10;56.90;;;;;;5090619;28;20445;-84
2022/03/07 11:12:12;;;;;;;14.65;11.48;;;5.10;56.80;;;;;;5091218;28;20051;-85
2022/03/07 11:14:43;;;;;;;13.20;10.98;;;5.20;56.60;;;;;;5091636;28;20047;-85
2022/03/07 11:17:14;;;;;;;14.98;11.27;;;5.20;56.40;;;;;;5090956;28;20120;-85
2022/03/07 11:19:42;;;;;;;16.73;11.75;;;5.30;56.30;;;;;;5090956;28;20048;-84
2022/03/07 11:22:11;;;;;;;13.50;11.18;;;5.40;56.30;;;;;;5090852;28;20067;-85
2022/03/07 11:24:39;;;;;;;14.45;11.20;;;5.40;56.20;;;;;;5090345;28;20052;-86
2022/03/07 11:27:08;;;;;;;15.38;10.88;;;5.50;56.10;;;;;;5090571;28;20105;-85
2022/03/07 11:29:40;;;;;;;15.02;11.82;;;5.50;55.90;;;;;;5092132;28;20130;-85
2022/03/07 11:32:11;;;;;;;13.90;11.82;;;5.50;55.80;;;;;;5090608;28;20052;-87
2022/03/07 11:34:38;;;;;;;17.33;11.60;;;5.50;55.70;;;;;;5089205;28;20052;-87
2022/03/07 11:37:19;;;;;;;14.73;11.98;;;5.60;55.60;;;;;;5090162;28;20044;-86
2022/03/07 11:39:46;;;;;;;13.27;11.15;;;5.60;55.50;;;;;;5090520;28;20097;-86
2022/03/07 11:42:19;;;;;;;15.50;11.77;;;5.60;55.50;;;;;;5090700;28;20062;-86
2022/03/07 11:44:47;;;;;;;14.82;11.80;;;5.70;55.30;;;;;;5090405;28;20052;-86
2022/03/07 11:47:18;;;;;;;14.35;11.30;;;5.70;55.30;;;;;;5092479;28;20044;-85
2022/03/07 11:49:46;;;;;;;14.30;11.48;;;5.70;55.10;;;;;;5090285;28;20047;-86
2022/03/07 11:52:15;;;;;;;12.45;10.88;;;5.70;55.00;;;;;;5090039;28;20122;-85
2022/03/07 11:55:16;;;;;;;16.52;11.70;;;5.70;55.00;;;;;;5090280;28;20047;-85
2022/03/07 11:57:45;;;;;;;12.85;10.98;;;5.70;54.80;;;;;;5090324;28;20506;-85
2022/03/07 12:00:24;;;;;;;14.40;11.75;;;5.80;54.80;;;;;;5090393;28;20502;-86
2022/03/07 12:02:54;;;;;;;13.13;11.73;;;5.80;54.70;;;;;;5090169;28;20048;-85
2022/03/07 12:05:32;;;;;;;14.30;11.63;;;5.80;54.70;;;;;;5092350;28;20115;-86
2022/03/07 12:08:19;;;;;;;14.05;11.98;;;5.80;54.60;;;;;;5089369;28;20051;-85
2022/03/07 12:11:02;;;;;;;13.32;11.32;;;5.90;54.50;;;;;;5090138;28;20048;-85
2022/03/07 12:13:35;;;;;;;12.65;10.90;;;5.90;54.40;;;;;;5088595;28;20422;-86
2022/03/07 12:16:03;;;;;;;12.95;11.18;;;5.90;54.40;;;;;;5090066;28;20051;-88
2022/03/07 12:18:36;;;;;;;16.02;11.98;;;5.90;54.30;;;;;;5090090;28;20582;-87
2022/03/07 12:21:03;;;;;;;15.77;12.25;;;5.90;54.30;;;;;;5074721;28;20144;-86
2022/03/07 12:23:35;;;;;;;14.02;10.98;;;5.90;54.30;;;;;;5091584;28;20044;-86
2022/03/07 12:26:08;;;;;;;15.27;11.52;;;6.00;54.30;;;;;;5091489;28;20059;-86
2022/03/07 12:28:45;;;;;;;14.07;12.13;;;6.00;54.20;;;;;;5089871;28;20468;-86
2022/03/07 12:31:15;;;;;;;14.13;12.55;;;6.00;54.10;;;;;;5089871;28;20099;-87
2022/03/07 12:33:45;;;;;;;12.75;11.25;;;6.10;54.10;;;;;;5089930;28;20044;-88
2022/03/07 12:36:27;;;;;;;14.13;11.57;;;6.10;54.00;;;;;;5089728;28;20131;-87
2022/03/07 12:38:57;;;;;;;16.38;11.55;;;6.10;54.00;;;;;;5089879;28;20044;-87
2022/03/07 12:41:32;;;;;;;17.15;11.77;;;6.20;53.80;;;;;;5087787;28;20044;-86
2022/03/07 12:44:00;;;;;;;14.73;11.90;;;6.20;53.70;;;;;;5089381;28;20055;-86